Time;durP1;ratioP1;P1;durP2;ratioP2;P2;SDS_P1;SDS_P2;PMS_P1;PMS_P2;Temp;Humidity;BMP_temperature;BMP_pressure;BME280_temperature;BME280_humidity;BME280_pressure;Samples;Min_cycle;Max_cycle;Signal;HPM_P1;HPM_P2
2022/05/28 00:01:33;;;;;;;7.78;1.70;;;11.60;99.90;;;;;;5099724;28;20052;-79
2022/05/28 00:04:04;;;;;;;9.32;2.28;;;11.60;99.90;;;;;;5087301;28;20403;-78
2022/05/28 00:06:31;;;;;;;8.85;1.67;;;11.50;99.90;;;;;;5078455;28;20059;-77
2022/05/28 00:08:58;;;;;;;6.68;1.45;;;11.50;99.90;;;;;;5068652;28;20044;-78
2022/05/28 00:11:27;;;;;;;8.60;1.92;;;11.40;99.90;;;;;;5098413;28;20809;-77
2022/05/28 00:13:53;;;;;;;6.93;1.20;;;11.40;99.90;;;;;;5083811;28;20043;-76
2022/05/28 00:16:19;;;;;;;13.07;2.28;;;11.40;99.90;;;;;;5074584;28;20591;-77
2022/05/28 00:18:45;;;;;;;8.10;2.00;;;11.30;99.90;;;;;;5080187;28;20039;-77
2022/05/28 00:21:12;;;;;;;8.32;2.10;;;11.30;99.90;;;;;;5103619;28;20052;-77
2022/05/28 00:23:39;;;;;;;19.30;2.28;;;11.30;99.90;;;;;;5091051;28;20043;-76
2022/05/28 00:26:05;;;;;;;7.50;1.60;;;11.20;99.90;;;;;;5096715;28;20313;-78
2022/05/28 00:28:32;;;;;;;8.93;1.85;;;11.20;99.90;;;;;;5099527;28;20040;-78
2022/05/28 00:30:59;;;;;;;10.88;1.77;;;11.10;99.90;;;;;;5096170;28;20184;-78
2022/05/28 00:33:26;;;;;;;7.35;1.85;;;11.10;99.90;;;;;;5073325;28;20054;-78
2022/05/28 00:35:52;;;;;;;8.10;2.35;;;11.00;99.90;;;;;;5101383;28;20273;-77
2022/05/28 00:38:18;;;;;;;13.23;2.35;;;11.00;99.90;;;;;;5080452;28;20586;-77
2022/05/28 00:40:49;;;;;;;9.35;1.60;;;11.00;99.90;;;;;;5100114;28;20067;-77
2022/05/28 00:43:15;;;;;;;13.00;2.05;;;10.90;99.90;;;;;;5099871;28;20490;-77
2022/05/28 00:45:41;;;;;;;13.77;1.80;;;10.80;99.90;;;;;;5099279;28;20031;-76
2022/05/28 00:48:09;;;;;;;12.23;1.73;;;10.80;99.90;;;;;;5093183;28;20127;-75
2022/05/28 00:50:36;;;;;;;10.05;2.13;;;10.80;99.90;;;;;;5097834;28;20413;-77
2022/05/28 00:53:03;;;;;;;12.20;1.90;;;10.70;99.90;;;;;;5079924;28;20765;-76
2022/05/28 00:55:32;;;;;;;14.63;1.80;;;10.80;99.90;;;;;;5095280;28;20112;-79
2022/05/28 00:58:01;;;;;;;11.93;2.85;;;10.80;99.90;;;;;;5083450;28;20043;-77
2022/05/28 01:00:27;;;;;;;14.13;2.90;;;10.80;99.90;;;;;;5100102;28;20135;-78
2022/05/28 01:03:13;;;;;;;9.88;2.03;;;10.80;99.90;;;;;;5096689;28;20043;-77
2022/05/28 01:06:11;;;;;;;11.52;2.45;;;10.70;99.90;;;;;;5084865;28;20074;-77
2022/05/28 01:08:53;;;;;;;11.93;1.90;;;10.70;99.90;;;;;;5099101;28;20050;-79
2022/05/28 01:11:39;;;;;;;13.73;1.95;;;10.60;99.90;;;;;;5080456;28;20494;-80
2022/05/28 01:14:13;;;;;;;15.48;2.10;;;10.60;99.90;;;;;;5079538;28;20043;-79
2022/05/28 01:16:55;;;;;;;11.07;2.20;;;10.60;99.90;;;;;;5096979;28;20036;-80
2022/05/28 01:20:07;;;;;;;9.85;1.55;;;10.60;99.90;;;;;;5084248;28;20132;-79
2022/05/28 01:23:08;;;;;;;9.93;1.95;;;10.60;99.90;;;;;;5073877;28;20063;-80
2022/05/28 01:26:04;;;;;;;17.67;2.28;;;10.60;99.90;;;;;;5041363;28;20039;-78
2022/05/28 01:28:44;;;;;;;6.93;1.55;;;10.60;99.90;;;;;;5084539;28;20044;-79
2022/05/28 01:31:11;;;;;;;11.82;1.80;;;10.70;99.90;;;;;;5096554;28;20138;-78
2022/05/28 01:33:41;;;;;;;6.68;1.55;;;10.60;99.90;;;;;;5092202;28;20043;-79
2022/05/28 01:36:08;;;;;;;9.57;2.20;;;10.60;99.90;;;;;;5097852;28;20479;-78
2022/05/28 01:38:37;;;;;;;11.75;2.03;;;10.60;99.90;;;;;;5086991;28;20071;-79
2022/05/28 01:41:06;;;;;;;8.10;2.00;;;10.60;99.90;;;;;;5075052;28;20044;-78
2022/05/28 01:43:37;;;;;;;13.30;2.88;;;10.60;99.90;;;;;;5085320;28;20042;-78
2022/05/28 01:46:05;;;;;;;10.40;1.70;;;10.60;99.90;;;;;;5103000;28;20059;-77
2022/05/28 01:48:32;;;;;;;13.57;2.38;;;10.60;99.90;;;;;;5084154;28;20136;-78
2022/05/28 01:50:58;;;;;;;6.57;1.60;;;10.60;99.90;;;;;;5098398;28;20063;-78
2022/05/28 01:54:26;;;;;;;9.55;1.60;;;10.60;99.90;;;;;;5085040;28;20074;-79
2022/05/28 01:56:21;;;;;;;12.05;1.58;;;10.50;99.90;;;;;;5087554;28;20048;-80
2022/05/28 01:58:47;;;;;;;12.45;2.38;;;10.60;99.90;;;;;;5084088;28;20047;-80
2022/05/28 02:01:12;;;;;;;12.75;2.17;;;10.50;99.90;;;;;;5094389;28;20043;-78
2022/05/28 02:03:42;;;;;;;12.80;2.28;;;10.50;99.90;;;;;;5080872;28;20069;-78
2022/05/28 02:06:08;;;;;;;9.52;2.42;;;10.50;99.90;;;;;;5096605;28;20486;-79
2022/05/28 02:08:38;;;;;;;10.63;1.98;;;10.50;99.90;;;;;;5106315;28;20043;-79
2022/05/28 02:11:08;;;;;;;9.48;1.73;;;10.50;99.90;;;;;;5091085;28;20039;-78
2022/05/28 02:13:54;;;;;;;10.05;1.98;;;10.50;99.90;;;;;;5086225;28;20100;-79
2022/05/28 02:16:49;;;;;;;10.82;1.90;;;10.50;99.90;;;;;;5099960;28;20122;-78
2022/05/28 02:19:47;;;;;;;15.63;2.58;;;10.60;99.90;;;;;;5097712;28;20056;-78
2022/05/28 02:22:19;;;;;;;10.73;2.45;;;10.60;99.90;;;;;;5076447;28;20092;-77
2022/05/28 02:24:51;;;;;;;9.13;1.92;;;10.60;99.90;;;;;;5100855;28;20139;-77
2022/05/28 02:27:21;;;;;;;12.18;2.40;;;10.60;99.90;;;;;;5085340;28;20158;-79
2022/05/28 02:29:46;;;;;;;15.60;2.17;;;10.60;99.90;;;;;;5081923;28;20483;-77
2022/05/28 02:32:21;;;;;;;17.25;2.28;;;10.50;99.90;;;;;;5084747;28;20124;-77
2022/05/28 02:34:47;;;;;;;13.13;2.63;;;10.50;99.90;;;;;;5082924;28;20521;-77
2022/05/28 02:37:15;;;;;;;13.00;2.20;;;10.50;99.90;;;;;;5103352;28;20031;-77
2022/05/28 02:39:41;;;;;;;8.77;2.47;;;10.50;99.90;;;;;;5085253;28;20063;-78
2022/05/28 02:42:07;;;;;;;15.38;2.53;;;10.50;99.90;;;;;;5085982;28;20671;-77
2022/05/28 02:44:33;;;;;;;12.80;2.40;;;10.40;99.90;;;;;;5080921;28;20036;-78
2022/05/28 02:46:59;;;;;;;14.63;2.60;;;10.40;99.90;;;;;;5100710;28;20039;-78
2022/05/28 02:49:25;;;;;;;10.40;2.33;;;10.50;99.90;;;;;;5082464;28;20500;-78
2022/05/28 02:51:52;;;;;;;11.77;2.20;;;10.50;99.90;;;;;;5077069;28;20089;-77
2022/05/28 02:54:19;;;;;;;15.05;2.55;;;10.40;99.90;;;;;;5081853;28;20124;-77
2022/05/28 02:56:45;;;;;;;15.80;2.33;;;10.40;99.90;;;;;;5073164;28;20040;-77
2022/05/28 02:59:11;;;;;;;10.40;2.22;;;10.40;99.90;;;;;;5083953;28;20043;-77
2022/05/28 03:01:37;;;;;;;10.05;2.28;;;10.40;99.90;;;;;;5102188;28;20149;-78
2022/05/28 03:04:05;;;;;;;7.50;1.90;;;10.40;99.90;;;;;;5097246;28;20051;-78
2022/05/28 03:06:31;;;;;;;13.60;3.15;;;10.30;99.90;;;;;;5074745;28;20391;-78
2022/05/28 03:08:57;;;;;;;10.55;2.28;;;10.30;99.90;;;;;;5103470;28;20036;-77
2022/05/28 03:11:23;;;;;;;15.65;2.80;;;10.30;99.90;;;;;;5094375;28;20039;-77
2022/05/28 03:13:49;;;;;;;18.30;3.38;;;10.30;99.90;;;;;;5101623;28;20150;-78
2022/05/28 03:16:16;;;;;;;9.88;2.05;;;10.40;99.90;;;;;;5098988;27;20051;-77
2022/05/28 03:18:42;;;;;;;15.25;2.45;;;10.30;99.90;;;;;;5102382;28;20376;-76
2022/05/28 03:21:08;;;;;;;15.65;2.70;;;10.30;99.90;;;;;;5102511;28;20051;-76
2022/05/28 03:23:34;;;;;;;15.43;2.75;;;10.30;99.90;;;;;;5106241;28;20170;-77
2022/05/28 03:26:26;;;;;;;11.98;2.25;;;10.40;99.90;;;;;;5097861;28;20176;-78
2022/05/28 03:28:53;;;;;;;12.53;2.63;;;10.40;99.90;;;;;;5077291;28;20079;-78
2022/05/28 03:31:19;;;;;;;18.45;2.90;;;10.40;99.90;;;;;;5083536;28;20055;-78
2022/05/28 03:33:45;;;;;;;13.82;2.65;;;10.40;99.90;;;;;;5105243;28;20027;-79
2022/05/28 03:36:11;;;;;;;15.90;3.03;;;10.40;99.90;;;;;;5075254;28;20473;-79
2022/05/28 03:38:37;;;;;;;14.75;2.40;;;10.40;99.90;;;;;;5103616;28;20043;-79
2022/05/28 03:41:03;;;;;;;12.65;2.10;;;10.50;99.90;;;;;;5101814;28;20441;-77
2022/05/28 03:43:29;;;;;;;12.57;2.55;;;10.50;99.90;;;;;;5102635;28;20112;-77
2022/05/28 03:45:55;;;;;;;13.35;2.22;;;10.60;99.90;;;;;;5101211;28;20064;-77
2022/05/28 03:48:21;;;;;;;13.68;2.80;;;10.60;99.90;;;;;;5094659;28;20384;-77
2022/05/28 03:50:47;;;;;;;12.90;2.72;;;10.70;99.90;;;;;;5099427;28;20059;-78
2022/05/28 03:53:13;;;;;;;15.68;3.00;;;10.60;99.90;;;;;;5085015;28;20155;-78
2022/05/28 03:55:39;;;;;;;18.52;2.67;;;10.70;99.90;;;;;;5080916;28;20043;-78
2022/05/28 03:58:06;;;;;;;17.95;3.42;;;10.70;99.90;;;;;;5084690;28;20414;-77
2022/05/28 04:00:31;;;;;;;16.52;3.42;;;10.70;99.90;;;;;;5102907;28;20050;-78
2022/05/28 04:02:58;;;;;;;13.40;2.80;;;10.80;99.90;;;;;;5103665;28;20040;-79
2022/05/28 04:05:24;;;;;;;20.02;3.38;;;10.90;99.90;;;;;;5082737;28;20058;-76
2022/05/28 04:07:50;;;;;;;13.38;2.33;;;11.00;99.90;;;;;;5098590;28;20036;-78
2022/05/28 04:10:15;;;;;;;11.48;2.60;;;11.20;99.90;;;;;;5101157;28;20098;-77
2022/05/28 04:12:41;;;;;;;18.65;3.30;;;11.40;99.90;;;;;;5102267;28;20422;-77
2022/05/28 04:15:08;;;;;;;13.32;2.65;;;11.60;99.90;;;;;;5097519;28;20200;-76
2022/05/28 04:17:34;;;;;;;16.92;3.25;;;11.80;99.90;;;;;;5082644;28;20067;-78
2022/05/28 04:20:01;;;;;;;19.83;3.03;;;11.90;99.90;;;;;;5103252;28;20047;-78
2022/05/28 04:22:26;;;;;;;16.13;3.33;;;11.90;99.90;;;;;;5100707;28;20067;-78
2022/05/28 04:24:52;;;;;;;18.58;3.25;;;12.00;99.90;;;;;;5079310;28;20071;-80
2022/05/28 04:27:18;;;;;;;15.13;3.88;;;12.00;99.90;;;;;;5103652;28;20375;-78
2022/05/28 04:29:44;;;;;;;13.38;2.97;;;12.00;99.90;;;;;;5099010;28;20039;-77
2022/05/28 04:32:09;;;;;;;19.50;3.40;;;11.70;99.90;;;;;;5101218;28;20118;-76
2022/05/28 04:34:35;;;;;;;18.60;4.28;;;11.50;99.90;;;;;;5084102;28;20101;-77
2022/05/28 04:37:01;;;;;;;14.35;2.47;;;11.30;99.90;;;;;;5079973;28;20457;-75
2022/05/28 04:39:26;;;;;;;12.80;3.13;;;11.20;99.90;;;;;;5097686;28;20495;-77
2022/05/28 04:41:52;;;;;;;19.65;3.40;;;11.10;99.90;;;;;;5082696;28;20108;-77
2022/05/28 04:44:17;;;;;;;11.57;2.38;;;10.90;99.90;;;;;;5085000;28;20054;-78
2022/05/28 04:46:43;;;;;;;15.88;2.60;;;10.90;99.90;;;;;;5077832;28;20050;-78
2022/05/28 04:49:09;;;;;;;13.63;3.47;;;10.80;99.90;;;;;;5083260;28;20051;-77
2022/05/28 04:51:35;;;;;;;16.58;2.80;;;10.80;99.90;;;;;;5075019;28;20130;-77
2022/05/28 04:54:00;;;;;;;24.30;3.58;;;10.80;99.90;;;;;;5100422;28;20035;-77
2022/05/28 04:56:26;;;;;;;10.93;2.55;;;10.80;99.90;;;;;;5094249;28;20047;-77
2022/05/28 04:58:52;;;;;;;17.70;2.90;;;10.90;99.90;;;;;;5077156;28;20040;-78
2022/05/28 05:01:19;;;;;;;14.90;2.70;;;10.90;99.90;;;;;;5098489;28;20051;-77
2022/05/28 05:03:46;;;;;;;16.02;3.35;;;11.00;99.90;;;;;;5097164;28;20047;-78
2022/05/28 05:06:11;;;;;;;17.90;3.83;;;11.00;99.90;;;;;;5102532;28;20040;-78
2022/05/28 05:08:39;;;;;;;15.23;2.67;;;11.00;99.90;;;;;;5093492;28;20043;-77
2022/05/28 05:11:05;;;;;;;16.73;3.10;;;11.10;99.90;;;;;;5102555;28;20281;-77
2022/05/28 05:13:31;;;;;;;16.98;3.92;;;11.10;99.90;;;;;;5097232;28;20242;-77
2022/05/28 05:15:57;;;;;;;18.88;2.90;;;11.20;99.90;;;;;;5079894;28;20036;-77
2022/05/28 05:18:22;;;;;;;17.35;3.13;;;11.40;99.90;;;;;;5090160;28;20563;-79
2022/05/28 05:20:48;;;;;;;16.02;3.20;;;11.40;99.90;;;;;;5104320;28;20040;-76
2022/05/28 05:23:14;;;;;;;18.02;3.33;;;11.40;99.90;;;;;;5103070;28;20486;-74
2022/05/28 05:25:40;;;;;;;13.70;3.22;;;11.50;99.90;;;;;;5084181;28;20036;-75
2022/05/28 05:28:06;;;;;;;22.50;4.50;;;11.60;99.90;;;;;;5111489;28;20455;-75
2022/05/28 05:30:32;;;;;;;14.60;2.95;;;11.70;99.90;;;;;;5102755;27;20479;-79
2022/05/28 05:32:57;;;;;;;15.38;3.95;;;11.60;99.90;;;;;;5108386;28;20099;-70
2022/05/28 05:35:23;;;;;;;15.75;3.67;;;11.60;99.90;;;;;;5073019;28;20099;-73
2022/05/28 05:37:49;;;;;;;14.35;2.85;;;11.60;99.90;;;;;;5109626;28;20522;-75
2022/05/28 05:40:15;;;;;;;16.50;3.75;;;11.60;99.90;;;;;;5109513;28;20111;-76
2022/05/28 05:42:41;;;;;;;17.05;3.97;;;11.70;99.90;;;;;;5108054;28;20044;-74
2022/05/28 05:45:07;;;;;;;14.10;3.60;;;11.70;99.90;;;;;;5074121;28;20044;-73
2022/05/28 05:47:34;;;;;;;13.38;2.90;;;11.80;99.90;;;;;;5104356;28;20047;-75
2022/05/28 05:50:00;;;;;;;14.88;3.17;;;11.80;99.90;;;;;;5107467;28;20127;-73
2022/05/28 05:52:25;;;;;;;16.83;2.97;;;11.80;99.90;;;;;;5105757;28;20119;-74
2022/05/28 05:54:52;;;;;;;13.77;2.90;;;11.80;99.90;;;;;;5080222;28;20387;-73
2022/05/28 05:57:18;;;;;;;9.95;2.63;;;11.80;99.90;;;;;;5095054;28;20054;-73
2022/05/28 05:59:44;;;;;;;13.15;2.75;;;11.80;99.90;;;;;;5092378;28;20043;-73
2022/05/28 06:02:10;;;;;;;14.45;2.67;;;11.80;99.90;;;;;;5105335;28;20032;-74
2022/05/28 06:04:36;;;;;;;17.55;2.92;;;11.90;99.90;;;;;;5090935;28;20046;-73
2022/05/28 06:07:07;;;;;;;12.13;3.03;;;11.90;99.90;;;;;;5108718;28;20044;-73
2022/05/28 06:09:33;;;;;;;17.10;2.95;;;11.90;99.90;;;;;;5099685;28;20044;-74
2022/05/28 06:11:59;;;;;;;14.98;2.90;;;12.00;99.90;;;;;;5107805;28;20135;-73
2022/05/28 06:14:25;;;;;;;13.35;2.30;;;12.10;99.90;;;;;;5110536;28;20199;-73
2022/05/28 06:16:51;;;;;;;18.27;3.80;;;12.10;99.90;;;;;;5095618;28;20043;-74
2022/05/28 06:19:16;;;;;;;12.32;3.03;;;12.20;99.90;;;;;;5102226;28;20036;-73
2022/05/28 06:21:42;;;;;;;14.52;3.17;;;12.20;99.90;;;;;;5106774;28;20491;-72
2022/05/28 06:24:08;;;;;;;19.58;3.97;;;12.20;99.90;;;;;;5109038;28;20525;-73
2022/05/28 06:26:34;;;;;;;15.63;3.33;;;12.20;99.90;;;;;;5107129;28;20043;-74
2022/05/28 06:28:59;;;;;;;10.15;2.67;;;12.20;99.90;;;;;;5106899;28;20474;-72
2022/05/28 06:31:25;;;;;;;13.95;3.17;;;12.30;99.90;;;;;;5108389;28;20286;-72
2022/05/28 06:33:51;;;;;;;11.80;2.40;;;12.60;99.90;;;;;;5100456;28;20055;-72
2022/05/28 06:36:17;;;;;;;10.27;2.30;;;12.70;99.90;;;;;;5104852;28;20091;-73
2022/05/28 06:38:42;;;;;;;18.05;3.15;;;12.80;99.90;;;;;;5107925;28;20047;-72
2022/05/28 06:41:09;;;;;;;14.60;2.50;;;12.80;99.90;;;;;;5080300;28;20120;-72
2022/05/28 06:43:38;;;;;;;18.58;3.65;;;12.90;99.90;;;;;;5087419;28;20039;-72
2022/05/28 06:46:08;;;;;;;13.05;2.72;;;12.90;99.90;;;;;;5084655;28;20191;-72
2022/05/28 06:48:36;;;;;;;17.10;2.50;;;13.00;99.90;;;;;;5088673;28;21452;-72
2022/05/28 06:51:03;;;;;;;15.35;2.97;;;13.00;99.90;;;;;;5104991;28;20055;-73
2022/05/28 06:53:40;;;;;;;13.80;3.55;;;13.00;99.90;;;;;;5103961;28;20503;-72
2022/05/28 06:56:08;;;;;;;19.08;3.00;;;13.00;99.90;;;;;;5107025;28;20560;-73
2022/05/28 06:58:34;;;;;;;12.07;2.92;;;13.00;99.90;;;;;;5097647;28;20032;-72
2022/05/28 07:01:01;;;;;;;13.57;2.80;;;13.10;99.90;;;;;;5086442;28;20047;-73
2022/05/28 07:03:29;;;;;;;26.02;4.13;;;13.10;99.90;;;;;;5090762;28;20051;-72
2022/05/28 07:05:55;;;;;;;15.55;3.20;;;13.40;99.90;;;;;;5103703;28;20601;-72
2022/05/28 07:08:21;;;;;;;26.95;3.38;;;13.40;99.90;;;;;;5073846;28;20216;-72
2022/05/28 07:10:53;;;;;;;13.43;2.65;;;13.40;99.90;;;;;;5083304;28;20183;-72
2022/05/28 07:13:20;;;;;;;22.02;3.50;;;13.40;99.90;;;;;;5091073;28;20046;-72
2022/05/28 07:15:46;;;;;;;16.20;3.42;;;13.50;99.90;;;;;;5100484;28;20089;-73
2022/05/28 07:18:12;;;;;;;18.08;3.17;;;13.90;99.90;;;;;;5099406;28;20507;-73
2022/05/28 07:20:38;;;;;;;14.32;2.92;;;14.30;99.90;;;;;;5086618;28;20051;-73
2022/05/28 07:23:13;;;;;;;11.73;3.10;;;14.50;99.90;;;;;;5072485;28;20067;-73
2022/05/28 07:25:39;;;;;;;19.25;2.78;;;14.30;99.90;;;;;;5075170;28;20144;-72
2022/05/28 07:28:24;;;;;;;15.18;2.72;;;14.10;99.90;;;;;;5089780;28;20177;-72
2022/05/28 07:31:06;;;;;;;16.58;3.58;;;14.00;99.90;;;;;;5102187;28;20042;-72
2022/05/28 07:33:35;;;;;;;17.75;3.78;;;14.00;99.90;;;;;;5094129;28;20441;-72
2022/05/28 07:36:02;;;;;;;13.90;3.05;;;14.00;99.90;;;;;;5095510;28;20036;-72
2022/05/28 07:38:29;;;;;;;10.80;2.42;;;14.00;99.90;;;;;;5101931;28;20478;-73
2022/05/28 07:40:56;;;;;;;11.85;2.45;;;14.00;99.90;;;;;;5089208;28;20066;-73
2022/05/28 07:43:22;;;;;;;16.70;3.58;;;14.00;99.90;;;;;;5080761;28;20040;-72
2022/05/28 07:45:48;;;;;;;16.73;3.20;;;13.90;99.90;;;;;;5107101;28;20096;-72
2022/05/28 07:48:15;;;;;;;14.80;2.90;;;14.10;99.90;;;;;;5089120;28;20051;-73
2022/05/28 07:50:42;;;;;;;11.82;3.17;;;14.40;99.90;;;;;;5108123;28;20047;-74
2022/05/28 07:53:08;;;;;;;17.50;3.13;;;14.40;99.90;;;;;;5089850;28;20640;-71
2022/05/28 07:55:35;;;;;;;15.82;2.72;;;14.30;99.90;;;;;;5108163;28;20050;-72
2022/05/28 07:58:10;;;;;;;13.73;2.90;;;14.30;99.90;;;;;;5099603;28;20043;-73
2022/05/28 08:00:45;;;;;;;17.75;3.20;;;14.50;99.90;;;;;;5093212;28;20040;-72
2022/05/28 08:03:12;;;;;;;15.13;3.20;;;14.70;99.90;;;;;;5085085;28;20040;-72
2022/05/28 08:05:40;;;;;;;16.60;3.90;;;14.80;99.90;;;;;;5099061;28;20071;-74
2022/05/28 08:08:06;;;;;;;11.95;2.60;;;14.90;99.90;;;;;;5100490;28;20043;-72
2022/05/28 08:10:32;;;;;;;20.13;3.75;;;15.00;99.90;;;;;;5098942;28;20071;-72
2022/05/28 08:13:06;;;;;;;12.68;2.70;;;14.90;99.90;;;;;;5081100;28;20093;-73
2022/05/28 08:15:37;;;;;;;15.18;2.92;;;14.70;99.90;;;;;;5106047;28;20036;-73
2022/05/28 08:18:03;;;;;;;16.05;2.80;;;14.60;99.90;;;;;;5088180;28;20042;-71
2022/05/28 08:23:18;;;;;;;14.55;2.58;;;14.90;99.90;;;;;;5089579;28;20119;-72
2022/05/28 08:25:46;;;;;;;15.95;3.60;;;15.20;99.90;;;;;;5105919;28;20564;-73
2022/05/28 08:28:17;;;;;;;13.55;2.30;;;15.60;99.90;;;;;;5108042;28;20135;-72
2022/05/28 08:30:44;;;;;;;10.15;2.40;;;15.80;99.90;;;;;;5082033;28;20044;-72
2022/05/28 08:33:14;;;;;;;12.25;2.70;;;15.80;99.90;;;;;;5073009;28;20119;-72
2022/05/28 08:35:40;;;;;;;16.02;2.45;;;15.80;99.90;;;;;;5073657;28;20506;-72
2022/05/28 08:38:09;;;;;;;10.13;2.42;;;15.80;99.90;;;;;;5107728;28;20051;-71
2022/05/28 08:40:43;;;;;;;20.10;3.00;;;16.00;99.90;;;;;;5106201;28;20040;-72
2022/05/28 08:43:11;;;;;;;12.48;2.88;;;16.40;99.90;;;;;;5092499;28;20114;-71
2022/05/28 08:45:37;;;;;;;10.50;3.03;;;16.60;99.90;;;;;;5079236;28;20430;-72
2022/05/28 08:48:04;;;;;;;14.50;2.45;;;16.50;99.90;;;;;;5086829;28;20441;-71
2022/05/28 08:50:33;;;;;;;19.67;3.13;;;16.10;99.90;;;;;;5082595;28;20142;-71
2022/05/28 08:53:13;;;;;;;12.40;2.80;;;16.20;99.90;;;;;;5107024;28;20035;-72
2022/05/28 08:55:47;;;;;;;16.85;3.28;;;16.00;99.90;;;;;;5101652;28;20495;-71
2022/05/28 08:58:20;;;;;;;12.32;2.97;;;15.90;99.90;;;;;;5089406;28;20039;-71
2022/05/28 09:01:19;;;;;;;14.13;3.08;;;16.00;99.90;;;;;;5089557;28;20043;-71
2022/05/28 09:03:51;;;;;;;14.15;2.55;;;16.30;99.90;;;;;;5101151;28;20533;-71
2022/05/28 09:06:23;;;;;;;12.43;2.50;;;16.70;99.90;;;;;;5107243;28;20039;-71
2022/05/28 09:08:53;;;;;;;11.20;3.07;;;16.50;99.90;;;;;;5102371;28;20399;-71
2022/05/28 09:11:39;;;;;;;13.27;3.13;;;16.50;99.90;;;;;;5105068;28;20069;-73
2022/05/28 09:14:25;;;;;;;17.95;2.67;;;16.90;99.90;;;;;;5100917;28;20289;-73
2022/05/28 09:16:56;;;;;;;15.55;3.53;;;17.20;99.90;;;;;;5106549;28;20785;-71
2022/05/28 09:19:32;;;;;;;17.60;3.53;;;16.80;99.90;;;;;;5089217;28;20051;-72
2022/05/28 09:21:58;;;;;;;12.48;3.05;;;16.30;99.90;;;;;;5104214;28;20171;-72
2022/05/28 09:24:31;;;;;;;12.13;2.30;;;16.10;99.90;;;;;;5105042;28;20139;-72
2022/05/28 09:26:59;;;;;;;;;;;16.20;99.90;;;;;;5107733;28;20039;-73
2022/05/28 09:30:02;;;;;;;14.82;2.88;;;16.60;99.90;;;;;;5103209;28;19927;-72
2022/05/28 09:32:58;;;;;;;19.40;3.15;;;16.50;99.90;;;;;;5085579;28;20433;-72
2022/05/28 09:35:33;;;;;;;18.27;3.67;;;16.30;99.90;;;;;;5107631;28;20048;-72
2022/05/28 09:38:11;;;;;;;17.92;2.95;;;16.30;99.90;;;;;;5077708;28;20047;-73
2022/05/28 09:40:46;;;;;;;14.63;3.67;;;16.10;99.90;;;;;;5104262;28;20044;-71
2022/05/28 09:43:40;;;;;;;15.65;2.65;;;16.30;99.90;;;;;;5104401;28;20545;-71
2022/05/28 09:46:26;;;;;;;17.23;2.83;;;16.50;99.90;;;;;;5101283;28;20514;-72
2022/05/28 09:49:05;;;;;;;16.88;3.25;;;16.20;99.90;;;;;;5068503;28;20044;-71
2022/05/28 09:51:37;;;;;;;14.90;2.90;;;15.70;99.90;;;;;;5097834;28;20510;-71
2022/05/28 09:54:16;;;;;;;14.23;3.25;;;15.50;99.90;;;;;;5081639;28;20088;-71
2022/05/28 09:57:03;;;;;;;10.05;2.45;;;15.30;99.90;;;;;;5080878;28;20088;-72
2022/05/28 09:59:45;;;;;;;15.00;3.50;;;15.20;99.90;;;;;;5104117;28;20371;-73
2022/05/28 10:02:14;;;;;;;13.82;2.60;;;15.40;99.90;;;;;;5101400;28;20439;-72
2022/05/28 10:05:10;;;;;;;13.85;3.05;;;16.00;99.90;;;;;;5085544;28;20101;-72
2022/05/28 10:07:49;;;;;;;18.27;3.80;;;16.10;99.90;;;;;;5092130;28;20055;-72
2022/05/28 10:10:26;;;;;;;13.15;3.50;;;15.80;99.90;;;;;;5110274;28;20047;-72
2022/05/28 10:12:52;;;;;;;14.55;3.30;;;15.50;99.90;;;;;;5092782;28;20058;-73
2022/05/28 10:15:23;;;;;;;10.52;2.28;;;15.50;99.90;;;;;;5093517;27;20036;-72
2022/05/28 10:18:02;;;;;;;18.52;3.92;;;15.80;99.90;;;;;;5104561;28;20055;-72
2022/05/28 10:20:29;;;;;;;9.55;2.45;;;15.90;99.90;;;;;;5087390;28;20071;-73
2022/05/28 10:22:57;;;;;;;20.77;3.20;;;15.90;99.90;;;;;;5083408;28;20058;-73
2022/05/28 10:25:48;;;;;;;17.23;3.47;;;15.80;99.90;;;;;;5101947;28;20035;-71
2022/05/28 10:28:26;;;;;;;14.27;2.65;;;15.60;99.90;;;;;;5106049;28;20035;-73
2022/05/28 10:30:53;;;;;;;14.43;2.53;;;15.80;99.90;;;;;;5096704;28;20075;-72
2022/05/28 10:33:31;;;;;;;12.07;2.60;;;15.60;99.90;;;;;;5104761;28;20035;-73
2022/05/28 10:36:13;;;;;;;15.52;2.60;;;15.40;99.90;;;;;;5084365;28;20081;-73
2022/05/28 10:38:39;;;;;;;12.05;3.30;;;15.30;99.90;;;;;;5108589;28;20036;-72
2022/05/28 10:41:14;;;;;;;12.98;2.92;;;15.60;99.90;;;;;;5088978;28;20097;-72
2022/05/28 10:43:40;;;;;;;11.38;2.30;;;15.80;99.90;;;;;;5089295;28;20059;-72
2022/05/28 10:46:14;;;;;;;11.20;2.47;;;15.70;99.90;;;;;;5078593;28;20032;-72
2022/05/28 10:49:07;;;;;;;14.23;2.80;;;15.90;99.90;;;;;;5107857;28;20043;-73
2022/05/28 10:51:59;;;;;;;15.02;3.15;;;16.10;99.90;;;;;;5085800;28;20043;-72
2022/05/28 10:54:45;;;;;;;13.75;3.28;;;16.00;99.90;;;;;;5084516;28;20529;-73
2022/05/28 10:57:43;;;;;;;12.40;2.55;;;15.90;99.90;;;;;;5105433;28;20051;-73
2022/05/28 11:00:11;;;;;;;13.70;2.30;;;15.70;99.90;;;;;;5086833;28;20046;-71
2022/05/28 11:02:49;;;;;;;9.30;2.72;;;15.40;99.90;;;;;;5081906;28;20130;-72
2022/05/28 11:05:53;;;;;;;10.40;1.80;;;15.20;99.90;;;;;;5095735;28;20135;-73
2022/05/28 11:08:49;;;;;;;15.48;2.60;;;15.10;99.90;;;;;;5107470;28;20600;-71
2022/05/28 11:11:37;;;;;;;16.05;2.67;;;15.20;99.90;;;;;;5103892;28;20710;-72
2022/05/28 11:14:21;;;;;;;20.52;3.97;;;15.40;99.90;;;;;;5104062;28;20100;-72
2022/05/28 11:16:53;;;;;;;9.43;2.63;;;15.20;99.90;;;;;;5104691;28;20506;-73
2022/05/28 11:19:37;;;;;;;13.63;3.78;;;15.00;99.90;;;;;;5102927;28;20043;-73
2022/05/28 11:22:21;;;;;;;13.55;2.78;;;14.90;99.90;;;;;;5086502;28;20474;-73
2022/05/28 11:24:53;;;;;;;13.93;2.72;;;14.80;99.90;;;;;;5085065;28;20036;-72
2022/05/28 11:27:54;;;;;;;14.00;2.80;;;14.80;99.90;;;;;;5108601;28;20096;-72
2022/05/28 11:30:23;;;;;;;12.80;3.67;;;14.90;99.90;;;;;;5027619;28;20065;-72
2022/05/28 11:33:19;;;;;;;14.98;3.42;;;15.00;99.90;;;;;;5096518;28;20040;-72
2022/05/28 11:36:08;;;;;;;10.38;2.13;;;14.90;99.90;;;;;;5074816;28;20127;-72
2022/05/28 11:38:49;;;;;;;8.75;2.15;;;14.50;99.90;;;;;;5105442;28;20047;-71
2022/05/28 11:41:35;;;;;;;13.52;2.40;;;14.40;99.90;;;;;;5102275;28;20127;-72
2022/05/28 11:44:24;;;;;;;10.45;2.33;;;14.30;99.90;;;;;;5101042;28;20040;-72
2022/05/28 11:46:58;;;;;;;12.77;2.47;;;14.50;99.90;;;;;;5093251;28;20063;-72
2022/05/28 11:52:28;;;;;;;13.35;3.00;;;15.00;99.90;;;;;;5102769;28;20050;-71
2022/05/28 11:55:14;;;;;;;16.77;3.63;;;15.20;99.90;;;;;;5086159;28;20062;-73
2022/05/28 11:57:54;;;;;;;14.77;2.95;;;15.00;99.90;;;;;;5109438;28;20364;-72
2022/05/28 12:00:21;;;;;;;12.35;2.97;;;14.70;99.90;;;;;;5092995;28;20055;-72
2022/05/28 12:02:56;;;;;;;13.65;2.47;;;14.50;99.90;;;;;;5103016;28;20380;-71
2022/05/28 12:05:25;;;;;;;12.52;2.53;;;14.50;99.90;;;;;;5106460;28;20070;-73
2022/05/28 12:07:57;;;;;;;14.13;2.40;;;14.60;99.90;;;;;;5089362;28;20051;-72
2022/05/28 12:10:54;;;;;;;14.20;3.22;;;14.90;99.90;;;;;;5108452;28;20097;-72
2022/05/28 12:13:47;;;;;;;9.80;2.55;;;15.20;99.90;;;;;;5070246;28;20043;-73
2022/05/28 12:16:37;;;;;;;10.75;1.85;;;15.10;99.90;;;;;;5080432;28;20044;-72
2022/05/28 12:19:13;;;;;;;13.38;2.20;;;15.00;99.90;;;;;;5087366;28;20027;-72
2022/05/28 12:21:43;;;;;;;9.68;1.65;;;14.70;99.90;;;;;;5103744;27;20172;-73
2022/05/28 12:24:14;;;;;;;6.85;1.75;;;14.60;99.90;;;;;;5089714;28;20052;-74
2022/05/28 12:26:48;;;;;;;8.55;1.95;;;14.70;99.90;;;;;;5108326;28;20044;-82
2022/05/28 12:29:44;;;;;;;13.93;2.28;;;14.80;99.90;;;;;;5086321;28;20156;-80
2022/05/28 12:32:16;;;;;;;12.68;2.28;;;15.20;99.90;;;;;;5094063;28;20117;-79
2022/05/28 12:34:51;;;;;;;11.57;2.85;;;15.40;99.90;;;;;;5107273;28;20053;-81
2022/05/28 12:37:24;;;;;;;10.60;2.35;;;15.50;99.90;;;;;;5101671;28;20127;-82
2022/05/28 12:40:23;;;;;;;8.63;1.88;;;15.40;99.90;;;;;;5105647;28;20035;-81
2022/05/28 12:42:49;;;;;;;9.82;2.63;;;15.20;99.90;;;;;;5103772;28;20477;-81
2022/05/28 12:45:24;;;;;;;8.38;2.03;;;15.10;99.90;;;;;;5084776;28;20071;-80
2022/05/28 12:47:50;;;;;;;8.88;2.28;;;15.10;99.90;;;;;;5087250;28;20057;-82
2022/05/28 12:50:23;;;;;;;7.88;1.88;;;15.30;99.90;;;;;;5104856;28;20070;-81
2022/05/28 12:53:17;;;;;;;11.00;2.42;;;15.40;99.90;;;;;;5082472;28;20043;-82
2022/05/28 12:55:42;;;;;;;9.50;1.80;;;15.70;99.90;;;;;;5084409;28;20058;-80
2022/05/28 12:58:13;;;;;;;11.77;2.33;;;16.00;99.90;;;;;;5108385;28;20065;-79
2022/05/28 13:00:54;;;;;;;11.82;1.88;;;16.30;99.90;;;;;;5100811;28;20085;-80
2022/05/28 13:03:23;;;;;;;9.32;2.05;;;16.30;99.90;;;;;;5104604;28;20039;-79
2022/05/28 13:06:15;;;;;;;9.27;2.20;;;16.30;99.90;;;;;;5088045;28;20043;-81
2022/05/28 13:09:11;;;;;;;6.93;1.83;;;16.50;99.90;;;;;;5080085;28;20043;-79